Data for 02/19/2017

Time Sea-Level Adjusted Pressure Absolute Pressure Temperature Relative Humidity Dew Point   
(mb) (inHg) (mb) (inHg) (C) (F) (%) (C) (F)
00:05 1002 29.59 831 24.54 5.8 42.4 52 -3.4 25.8
00:10 1002 29.59 831 24.54 5.8 42.5 52 -3.1 26.3
00:15 1001 29.56 831 24.54 5.9 42.6 53 -3 26.7
00:20 1001 29.56 831 24.54 5.6 42 54 -3.1 26.5
00:25 1001 29.56 831 24.54 5.6 42.1 53 -3.1 26.4
00:30 1001 29.56 831 24.54 5.7 42.3 53 -3 26.6
00:35 1001 29.56 831 24.54 5.7 42.3 53 -3 26.6
00:40 1001 29.56 831 24.54 5.8 42.4 53 -3 26.6
00:45 1001 29.56 831 24.54 5.9 42.6 52 -3.2 26.3
00:50 1001 29.56 831 24.54 6.1 43 51 -3.2 26.3
00:55 1001 29.56 830 24.51 6.2 43.1 53 -2.8 27
01:00 1001 29.56 830 24.51 5.6 42.2 55 -2.8 27
01:05 1001 29.56 831 24.54 5.4 41.7 54 -3.1 26.5
01:10 1001 29.56 830 24.51 5.9 42.7 53 -2.9 26.7
01:15 1001 29.56 830 24.51 5.9 42.7 53 -2.9 26.7
01:20 1001 29.56 830 24.51 5.9 42.6 53 -3 26.6
01:25 1001 29.56 830 24.51 5.6 42.1 54 -3 26.6
01:30 1001 29.56 830 24.51 6.1 42.9 52 -3.2 26.3
01:35 1001 29.56 830 24.51 6.4 43.6 51 -2.9 26.9
01:40 1001 29.56 830 24.51 6.2 43.1 53 -2.7 27.1
01:45 1001 29.56 830 24.51 6.2 43.1 53 -2.7 27.1
01:50 1001 29.56 830 24.51 5.9 42.5 55 -2.5 27.5
01:55 1001 29.56 830 24.51 6 42.8 53 -2.9 26.8
02:00 1001 29.56 830 24.51 6.2 43.2 53 -2.7 27.2
02:05 1001 29.56 830 24.51 6.2 43.2 53 -2.6 27.3
02:10 1001 29.56 830 24.51 6.2 43.2 54 -2.5 27.5
02:15 1001 29.56 830 24.51 6.3 43.3 54 -2.3 27.8
02:20 1001 29.56 830 24.51 6.3 43.3 53 -2.5 27.5
02:25 1001 29.56 830 24.51 6.6 43.9 52 -2.5 27.6
02:30 1001 29.56 830 24.51 6.7 44 52 -2.4 27.7
02:35 1001 29.56 830 24.51 6.8 44.2 52 -2.4 27.7
02:40 1001 29.56 830 24.51 6.9 44.4 52 -2.3 27.9
02:45 1000 29.53 830 24.51 6.7 44.1 53 -2.1 28.2
02:50 1000 29.53 830 24.51 6.7 44 53 -2.2 28
02:55 1001 29.56 830 24.51 6.7 44.1 54 -2 28.4
03:00 1001 29.56 830 24.51 6.7 44.1 53 -2.1 28.2
03:05 1001 29.56 830 24.51 6.7 44.1 54 -2 28.3
03:10 1001 29.56 830 24.51 6.6 43.9 54 -2 28.5
03:15 1001 29.56 830 24.51 6.5 43.8 55 -1.9 28.6
03:20 1001 29.56 830 24.51 6.5 43.6 55 -1.9 28.6
03:25 1001 29.56 830 24.51 6.4 43.6 55 -2 28.4
03:30 1001 29.56 830 24.51 6.6 43.8 54 -2 28.5
03:35 1001 29.56 830 24.51 6.6 43.9 54 -2 28.5
03:40 1001 29.56 830 24.51 6.6 43.9 55 -1.8 28.7
03:45 1001 29.56 830 24.51 6.6 43.9 54 -1.9 28.5
03:50 1001 29.56 830 24.51 6.7 44.1 53 -2.2 28.1
03:55 1001 29.56 830 24.51 6.8 44.3 54 -1.7 28.9
04:00 1001 29.56 830 24.51 6.6 44 54 -1.9 28.6
04:05 1001 29.56 830 24.51 6.6 43.8 55 -1.8 28.7
04:10 1001 29.56 830 24.51 6.4 43.5 56 -1.8 28.8
04:15 1001 29.56 830 24.51 6.1 43 56 -2.1 28.3
04:20 1001 29.56 830 24.51 6.2 43.2 56 -2 28.4
04:25 1001 29.56 830 24.51 6.1 43 56 -1.9 28.6
04:30 1001 29.56 830 24.51 6.2 43.1 57 -1.7 29
04:35 1001 29.56 830 24.51 6.3 43.4 54 -2.3 27.8
04:40 1001 29.56 830 24.51 6.3 43.4 56 -1.7 28.9
04:45 1001 29.56 830 24.51 6 42.8 56 -2.2 28.1
04:50 1001 29.56 830 24.51 6.3 43.4 55 -2 28.4
04:55 1001 29.56 830 24.51 6.3 43.4 55 -2.1 28.1
05:00 1001 29.56 830 24.51 6.3 43.3 56 -1.9 28.7
05:05 1001 29.56 830 24.51 6.1 43 56 -1.9 28.6
05:10 1001 29.56 830 24.51 6.1 42.9 57 -1.7 28.9
05:15 1001 29.56 830 24.51 6 42.7 57 -1.9 28.7
05:20 1001 29.56 830 24.51 5.8 42.5 58 -1.7 29
05:25 1001 29.56 830 24.51 5.5 41.9 59 -1.8 28.8
05:30 1001 29.56 830 24.51 5.3 41.5 61 -1.7 29
05:35 1001 29.56 830 24.51 5.1 41.1 61 -1.8 28.8
05:40 1001 29.56 830 24.51 5.1 41.2 60 -2.1 28.2
05:45 1001 29.56 830 24.51 5.2 41.3 60 -1.9 28.5
05:50 1001 29.56 830 24.51 5.1 41.1 60 -1.9 28.5
05:55 1001 29.56 830 24.51 5.2 41.3 60 -2 28.3
06:00 1001 29.56 830 24.51 5 41 61 -1.9 28.6
06:05 1001 29.56 830 24.51 4.7 40.4 62 -2 28.4
06:10 1001 29.56 830 24.51 4.3 39.7 63 -2.1 28.3
06:15 1001 29.56 830 24.51 4.1 39.3 64 -2.2 28.1
06:20 1001 29.56 830 24.51 4.1 39.3 64 -2.1 28.2
06:25 1001 29.56 830 24.51 4.1 39.4 63 -2.2 28
06:30 1001 29.56 830 24.51 4.8 40.6 59 -2.4 27.6
06:35 1001 29.56 830 24.51 5.3 41.6 59 -2 28.4
06:40 1001 29.56 830 24.51 5.2 41.4 60 -2 28.4
06:45 1001 29.56 830 24.51 5.2 41.3 60 -2 28.4
06:50 1001 29.56 830 24.51 5 41 61 -1.9 28.6
06:55 1001 29.56 831 24.54 4.9 40.8 61 -1.9 28.6
07:00 1001 29.56 831 24.54 4.9 40.8 62 -1.9 28.6
07:05 1001 29.56 831 24.54 4.8 40.6 62 -1.8 28.7
07:10 1001 29.56 831 24.54 4.7 40.5 63 -1.7 28.9
07:15 1001 29.56 831 24.54 4.7 40.5 63 -1.7 28.9
07:20 1001 29.56 830 24.51 4.7 40.4 64 -1.6 29.1
07:25 1001 29.56 831 24.54 4.6 40.3 64 -1.7 29
07:30 1001 29.56 831 24.54 4.5 40.2 64 -1.7 28.9
07:35 1002 29.59 831 24.54 4.3 39.8 65 -1.7 28.9
07:40 1002 29.59 831 24.54 4.3 39.7 65 -1.8 28.8
07:45 1002 29.59 831 24.54 4.1 39.5 66 -1.7 28.9
07:50 1001 29.56 831 24.54 4 39.2 66 -1.8 28.8
07:55 1001 29.56 831 24.54 3.9 39 67 -1.8 28.8
08:00 1001 29.56 831 24.54 3.8 38.8 67 -1.8 28.7
08:05 1001 29.56 831 24.54 3.9 39 67 -1.8 28.8
08:10 1001 29.56 831 24.54 3.9 38.9 67 -1.7 29
08:15 1001 29.56 831 24.54 3.8 38.9 67 -1.7 29
08:20 1002 29.59 831 24.54 3.7 38.7 68 -1.6 29.1
08:25 1002 29.59 831 24.54 3.6 38.5 68 -1.8 28.8
08:30 1002 29.59 831 24.54 3.7 38.7 67 -1.8 28.8
08:35 1002 29.59 831 24.54 3.9 39 66 -1.8 28.7
08:40 1002 29.59 831 24.54 4.2 39.6 65 -1.8 28.7
08:45 1002 29.59 831 24.54 4.3 39.7 66 -1.5 29.2
08:50 1002 29.59 831 24.54 4 39.2 66 -1.7 29
08:55 1002 29.59 831 24.54 3.9 39.1 66 -1.7 28.9
09:00 1002 29.59 831 24.54 4 39.1 67 -1.6 29
09:05 1002 29.59 831 24.54 3.9 39 67 -1.7 28.9
09:10 1002 29.59 831 24.54 4 39.1 67 -1.7 28.9
09:15 1002 29.59 831 24.54 4 39.2 67 -1.6 29.1
09:20 1002 29.59 831 24.54 4 39.3 66 -1.8 28.8
09:25 1002 29.59 831 24.54 4.4 39.9 64 -1.8 28.8
09:30 1002 29.59 831 24.54 4.6 40.3 65 -1.5 29.3
09:35 1002 29.59 831 24.54 3.9 39 68 -1.5 29.3
09:40 1002 29.59 831 24.54 3.9 39 65 -2 28.3
09:45 1002 29.59 831 24.54 4.5 40.1 65 -1.6 29.1
09:50 1002 29.59 831 24.54 4.4 39.9 65 -1.6 29.2
09:55 1002 29.59 831 24.54 4.4 39.9 64 -1.9 28.6
10:00 1002 29.59 831 24.54 4.9 40.7 62 -1.8 28.7
10:05 1002 29.59 831 24.54 5.2 41.3 62 -1.5 29.3
10:10 1002 29.59 831 24.54 5.1 41.2 61 -1.7 29
10:15 1002 29.59 831 24.54 5.4 41.8 61 -1.5 29.3
10:20 1002 29.59 831 24.54 5.8 42.4 60 -1.4 29.4
10:25 1002 29.59 831 24.54 5.8 42.5 60 -1.3 29.6
10:30 1002 29.59 831 24.54 6 42.9 60 -1.1 30
10:35 1002 29.59 831 24.54 5.9 42.5 60 -1.2 29.8
10:40 1002 29.59 831 24.54 5.9 42.7 59 -1.4 29.5
10:45 1002 29.59 831 24.54 6.2 43.1 59 -1.3 29.7
10:50 1002 29.59 831 24.54 6.2 43.1 58 -1.4 29.4
10:55 1002 29.59 832 24.57 6.3 43.3 58 -1.3 29.6
11:00 1002 29.59 832 24.57 6.3 43.4 59 -1.2 29.9
11:05 1002 29.59 832 24.57 6.4 43.6 57 -1.3 29.6
11:10 1002 29.59 832 24.57 6.6 43.9 57 -1.2 29.9
11:15 1003 29.62 832 24.57 6.5 43.7 59 -0.8 30.5
11:20 1003 29.62 832 24.57 6.1 43.1 62 -0.7 30.8
11:25 1003 29.62 832 24.57 5.3 41.6 67 -0.3 31.4
11:30 1003 29.62 832 24.57 4.7 40.4 72 -0 31.9
11:35 1003 29.62 832 24.57 4.1 39.3 75 0 32.1
11:40 1003 29.62 832 24.57 3.8 38.8 75 -0.2 31.6
11:45 1003 29.62 832 24.57 3.6 38.5 77 -0.1 31.8
11:50 1003 29.62 833 24.6 3.5 38.3 77 -0.3 31.5
11:55 1003 29.62 833 24.6 3.5 38.3 77 -0.2 31.7
12:00 1004 29.65 833 24.6 3.3 38 78 -0.1 31.8
12:05 1004 29.65 833 24.6 3.3 37.9 80 0.1 32.3
12:10 1004 29.65 833 24.6 3.3 37.9 80 0.2 32.3
12:15 1004 29.65 833 24.6 3.2 37.8 80 0.2 32.4
12:20 1004 29.65 833 24.6 3.3 37.9 81 0.4 32.7
12:25 1004 29.65 833 24.6 3.2 37.8 82 0.4 32.8
12:30 1004 29.65 833 24.6 3.1 37.6 83 0.6 33
12:35 1004 29.65 834 24.63 3.1 37.5 84 0.6 33
12:40 1005 29.68 834 24.63 3.2 37.8 82 0.4 32.8
12:45 1005 29.68 834 24.63 3 37.4 82 0.3 32.5
12:50 1005 29.68 834 24.63 2.7 36.9 83 0.1 32.2
12:55 1005 29.68 834 24.63 2.1 35.8 85 -0.1 31.9
13:00 1005 29.68 834 24.63 1.6 34.8 87 -0.4 31.3
13:05 1005 29.68 834 24.63 1.2 34.2 89 -0.5 31.1
13:10 1005 29.68 834 24.63 1 33.8 90 -0.5 31.1
13:15 1005 29.68 834 24.63 0.9 33.5 90 -0.6 31
13:20 1005 29.68 834 24.63 0.7 33.2 91 -0.6 30.9
13:25 1005 29.68 834 24.63 0.6 33.1 92 -0.6 30.9
13:30 1005 29.68 834 24.63 0.4 32.7 92 -0.7 30.7
13:35 1005 29.68 834 24.63 0.3 32.6 93 -0.7 30.7
13:40 1005 29.68 834 24.63 0.3 32.6 93 -0.7 30.7
13:45 1005 29.68 834 24.63 0.4 32.7 93 -0.6 31
13:50 1005 29.68 834 24.63 0.5 32.9 93 -0.5 31.1
13:55 1005 29.68 834 24.63 0.6 33.1 93 -0.4 31.3
14:00 1005 29.68 834 24.63 0.8 33.4 92 -0.3 31.4
14:05 1005 29.68 834 24.63 1 33.7 91 -0.4 31.3
14:10 1005 29.68 834 24.63 0.7 33.3 91 -0.6 31
14:15 1005 29.68 834 24.63 0.5 32.9 92 -0.7 30.8
14:20 1005 29.68 834 24.63 0.5 32.8 92 -0.7 30.8
14:25 1005 29.68 834 24.63 0.6 33.1 92 -0.5 31.1
14:30 1005 29.68 834 24.63 0.8 33.4 92 -0.4 31.3
14:35 1005 29.68 834 24.63 0.8 33.4 92 -0.4 31.3
14:40 1005 29.68 834 24.63 1.2 34.2 92 0 32.1
14:45 1005 29.68 834 24.63 1.8 35.3 89 0.3 32.5
14:50 1005 29.68 834 24.63 2.2 36 88 0.4 32.8
14:55 1004 29.65 834 24.63 2.5 36.4 85 0.2 32.4
15:00 1005 29.68 834 24.63 2.7 36.9 85 0.4 32.7
15:05 1005 29.68 834 24.63 2.4 36.3 84 -0 32
15:10 1005 29.68 834 24.63 2 35.6 86 -0.1 31.8
15:15 1005 29.68 834 24.63 2.2 35.9 85 -0.1 31.8
15:20 1005 29.68 834 24.63 2.3 36.2 86 0.2 32.3
15:25 1004 29.65 834 24.63 2.6 36.7 84 0.2 32.4
15:30 1004 29.65 834 24.63 3 37.4 84 0.5 32.9
15:35 1004 29.65 834 24.63 3.4 38.2 81 0.5 32.9
15:40 1004 29.65 834 24.63 3.9 38.9 82 1 33.8
15:45 1004 29.65 834 24.63 4.7 40.5 75 0.7 33.2
15:50 1004 29.65 834 24.63 4.2 39.6 78 0.7 33.2
15:55 1005 29.68 834 24.63 4 39.3 76 0.2 32.4
16:00 1005 29.68 834 24.63 4.4 40 76 0.6 33.1
16:05 1005 29.68 834 24.63 4.5 40.1 73 0.1 32.2
16:10 1005 29.68 834 24.63 4.5 40 71 -0.4 31.3
16:15 1005 29.68 834 24.63 4.5 40.1 69 -0.7 30.7
16:20 1005 29.68 834 24.63 4.9 40.9 68 -0.4 31.2
16:25 1005 29.68 834 24.63 5.8 42.4 63 -0.7 30.7
16:30 1005 29.68 834 24.63 6.3 43.3 61 -0.6 31
16:35 1005 29.68 834 24.63 6.4 43.6 64 0.1 32.2
16:40 1005 29.68 834 24.63 5.8 42.4 71 0.9 33.5
16:45 1005 29.68 834 24.63 5.2 41.3 73 0.7 33.3
16:50 1005 29.68 834 24.63 5.1 41.2 72 0.5 32.8
16:55 1005 29.68 834 24.63 4.9 40.9 72 0.3 32.6
17:00 1005 29.68 834 24.63 4.9 40.8 71 0 32
17:05 1005 29.68 834 24.63 4.8 40.6 69 -0.5 31.1
17:10 1005 29.68 834 24.63 4.3 39.8 73 -0.1 31.9
17:15 1005 29.68 834 24.63 4.2 39.5 77 0.4 32.8
17:20 1005 29.68 834 24.63 4.4 39.9 75 0.3 32.5
17:25 1005 29.68 835 24.66 4.6 40.2 73 0.2 32.4
17:30 1005 29.68 835 24.66 4.9 40.9 71 0.1 32.2
17:35 1005 29.68 834 24.63 5 41.1 71 0.2 32.3
17:40 1005 29.68 835 24.66 5.6 42.1 67 -0 32
17:45 1005 29.68 835 24.66 5.9 42.7 66 0.1 32.1
17:50 1005 29.68 835 24.66 5.2 41.4 69 0.1 32.2
17:55 1005 29.68 834 24.63 4.6 40.3 71 -0.2 31.6
18:00 1005 29.68 834 24.63 4.4 39.9 72 -0.3 31.5
18:05 1005 29.68 835 24.66 4.3 39.7 72 -0.4 31.3
18:10 1005 29.68 835 24.66 4.2 39.5 70 -0.7 30.7
18:15 1005 29.68 835 24.66 4 39.3 72 -0.5 31
18:20 1005 29.68 835 24.66 3.7 38.6 77 -0 32
18:25 1005 29.68 835 24.66 3.1 37.7 77 -0.5 31.2
18:30 1005 29.68 835 24.66 3.1 37.6 77 -0.5 31.2
18:35 1005 29.68 835 24.66 3.1 37.5 77 -0.6 31
18:40 1005 29.68 835 24.66 3.1 37.6 77 -0.6 30.9
18:45 1006 29.71 835 24.66 3.2 37.7 76 -0.6 30.9
18:50 1006 29.71 835 24.66 3.2 37.7 77 -0.5 31.1
18:55 1006 29.71 835 24.66 3.1 37.5 77 -0.6 30.8
19:00 1006 29.71 835 24.66 3.1 37.5 78 -0.4 31.3
19:05 1006 29.71 835 24.66 2.8 37.1 78 -0.6 31
19:10 1006 29.71 835 24.66 2.8 37 78 -0.7 30.8
19:15 1006 29.71 835 24.66 2.8 37 79 -0.5 31.1
19:20 1006 29.71 835 24.66 2.9 37.3 77 -0.7 30.7
19:25 1006 29.71 836 24.69 3 37.3 78 -0.5 31.2
19:30 1007 29.74 836 24.69 3.1 37.5 78 -0.5 31.2
19:35 1007 29.74 836 24.69 3 37.5 77 -0.6 31
19:40 1007 29.74 836 24.69 2.8 37.1 78 -0.6 30.9
19:45 1007 29.74 836 24.69 2.5 36.4 80 -0.6 30.9
19:50 1007 29.74 836 24.69 1.9 35.4 84 -0.5 31.1
19:55 1007 29.74 836 24.69 1.2 34.2 87 -0.7 30.8
20:00 1007 29.74 836 24.69 1 33.8 88 -0.8 30.6
20:05 1007 29.74 836 24.69 0.9 33.6 89 -0.8 30.6
20:10 1007 29.74 836 24.69 0.7 33.3 89 -0.8 30.5
20:15 1007 29.74 836 24.69 0.7 33.2 90 -0.8 30.5
20:20 1007 29.74 836 24.69 0.6 33.1 90 -0.8 30.5
20:25 1007 29.74 836 24.69 0.5 33 91 -0.8 30.5
20:30 1007 29.74 836 24.69 0.5 32.9 90 -0.9 30.4
20:35 1007 29.74 836 24.69 0.5 32.9 91 -0.8 30.5
20:40 1007 29.74 836 24.69 0.6 33 90 -0.8 30.5
20:45 1007 29.74 837 24.72 0.7 33.2 90 -0.8 30.5
20:50 1007 29.74 837 24.72 0.7 33.3 90 -0.8 30.6
20:55 1008 29.77 837 24.72 0.8 33.5 88 -0.9 30.5
21:00 1008 29.77 837 24.72 1 33.9 87 -0.8 30.5
21:05 1008 29.77 837 24.72 1.1 34.1 86 -0.9 30.3
21:10 1008 29.77 837 24.72 1.5 34.6 83 -1.1 30
21:15 1008 29.77 837 24.72 1.6 34.8 84 -0.8 30.6
21:20 1008 29.77 837 24.72 1.3 34.4 86 -0.8 30.6
21:25 1008 29.77 837 24.72 1.3 34.3 84 -1.2 29.8
21:30 1008 29.77 837 24.72 1.7 35.1 79 -1.5 29.3
21:35 1009 29.8 838 24.75 2 35.7 81 -0.9 30.4
21:40 1009 29.8 838 24.75 1.8 35.3 82 -0.9 30.3
21:45 1009 29.8 838 24.75 1.5 34.8 83 -1.1 30.1
21:50 1009 29.8 838 24.75 1.5 34.7 77 -2 28.4
21:55 1009 29.8 838 24.75 1.7 35 72 -2.9 26.8
22:00 1009 29.8 838 24.75 2 35.7 71 -2.7 27.1
22:05 1009 29.8 838 24.75 2.1 35.8 73 -2.2 28.1
22:10 1009 29.8 838 24.75 2.1 35.7 72 -2.5 27.6
22:15 1009 29.8 838 24.75 2 35.6 69 -3.1 26.3
22:20 1009 29.8 838 24.75 2.3 36.1 65 -3.5 25.6
22:25 1009 29.8 838 24.75 2.6 36.7 63 -3.7 25.3
22:30 1009 29.8 838 24.75 2.7 36.9 60 -4.3 24.3
22:35 1009 29.8 838 24.75 2.8 37.1 57 -4.8 23.4
22:40 1009 29.8 838 24.75 3.1 37.6 55 -5.1 22.8
22:45 1009 29.8 838 24.75 3.3 38 52 -5.7 21.8
22:50 1009 29.8 838 24.75 3.6 38.4 50 -6 21.2
22:55 1009 29.8 838 24.75 3.8 38.9 47 -6.6 20.2
23:00 1009 29.8 838 24.75 4 39.2 45 -6.9 19.6
23:05 1009 29.8 838 24.75 3.9 39.1 47 -6.5 20.3
23:10 1009 29.8 838 24.75 3.7 38.6 48 -6.5 20.4
23:15 1009 29.8 838 24.75 3.5 38.2 49 -6.3 20.7
23:20 1009 29.8 839 24.78 3.4 38.1 48 -6.7 20
23:25 1009 29.8 839 24.78 3.3 38 49 -6.4 20.6
23:30 1010 29.83 839 24.78 3 37.5 50 -6.4 20.5
23:35 1010 29.83 839 24.78 2.7 36.9 52 -6.3 20.7
23:40 1010 29.83 839 24.78 2.8 37.1 49 -6.8 19.7
23:45 1010 29.83 839 24.78 3 37.4 48 -7.1 19.3
23:50 1010 29.83 839 24.78 3.2 37.8 46 -7.4 18.7
23:55 1010 29.83 839 24.78 3.3 38 48 -6.7 19.9
24:00 1010 29.83 839 24.78 3.2 37.8 46 -7.2 19